sensor_id;sensor_type;location;lat;lon;timestamp;pressure;altitude;pressure_sealevel;temperature;humidity
27425;BME280;15244;49.088;11.886;2022-12-20T00:02:19;96514.84;;;2.18;53.70
27425;BME280;15244;49.088;11.886;2022-12-20T00:07:21;96522.59;;;2.20;53.53
27425;BME280;15244;49.088;11.886;2022-12-20T00:12:23;96523.72;;;2.19;53.51
27425;BME280;15244;49.088;11.886;2022-12-20T00:17:24;96519.91;;;2.20;53.47
27425;BME280;15244;49.088;11.886;2022-12-20T00:22:26;96533.06;;;2.21;53.73
27425;BME280;15244;49.088;11.886;2022-12-20T00:27:28;96526.28;;;2.24;53.25
27425;BME280;15244;49.088;11.886;2022-12-20T00:32:30;96516.28;;;2.24;53.41
27425;BME280;15244;49.088;11.886;2022-12-20T00:37:32;96507.94;;;2.26;53.32
27425;BME280;15244;49.088;11.886;2022-12-20T00:42:33;96507.94;;;2.26;53.31
27425;BME280;15244;49.088;11.886;2022-12-20T00:47:35;96507.09;;;2.25;53.63
27425;BME280;15244;49.088;11.886;2022-12-20T00:52:37;96497.47;;;2.24;53.80
27425;BME280;15244;49.088;11.886;2022-12-20T00:57:38;96515.19;;;2.25;53.47
27425;BME280;15244;49.088;11.886;2022-12-20T01:02:40;96514.41;;;2.25;53.24
27425;BME280;15244;49.088;11.886;2022-12-20T01:07:42;96508.22;;;2.24;53.67
27425;BME280;15244;49.088;11.886;2022-12-20T01:12:43;96500.94;;;2.25;53.49
27425;BME280;15244;49.088;11.886;2022-12-20T01:17:46;96525.50;;;2.23;53.43
27425;BME280;15244;49.088;11.886;2022-12-20T01:22:47;96507.44;;;2.24;53.23
27425;BME280;15244;49.088;11.886;2022-12-20T01:27:49;96512.19;;;2.27;53.37
27425;BME280;15244;49.088;11.886;2022-12-20T01:32:51;96515.19;;;2.25;53.30
27425;BME280;15244;49.088;11.886;2022-12-20T01:37:52;96518.69;;;2.26;53.70
27425;BME280;15244;49.088;11.886;2022-12-20T01:42:54;96502.53;;;2.26;53.20
27425;BME280;15244;49.088;11.886;2022-12-20T01:47:57;96499.03;;;2.25;53.68
27425;BME280;15244;49.088;11.886;2022-12-20T01:53:00;96495.56;;;2.25;53.73
27425;BME280;15244;49.088;11.886;2022-12-20T01:58:07;96483.38;;;2.27;53.36
27425;BME280;15244;49.088;11.886;2022-12-20T02:03:12;96465.34;;;2.28;53.82
27425;BME280;15244;49.088;11.886;2022-12-20T02:08:16;96456.19;;;2.29;53.76
27425;BME280;15244;49.088;11.886;2022-12-20T02:13:36;96468.03;;;2.28;53.34
27425;BME280;15244;49.088;11.886;2022-12-20T02:18:57;96479.91;;;2.27;53.46
27425;BME280;15244;49.088;11.886;2022-12-20T02:35:03;96469.00;;;2.23;53.58
27425;BME280;15244;49.088;11.886;2022-12-20T02:40:05;96460.44;;;2.21;53.55
27425;BME280;15244;49.088;11.886;2022-12-20T02:45:09;96465.81;;;2.21;53.54
27425;BME280;15244;49.088;11.886;2022-12-20T02:50:43;96456.81;;;2.26;53.26
27425;BME280;15244;49.088;11.886;2022-12-20T02:55:58;96452.50;;;2.25;53.33
27425;BME280;15244;49.088;11.886;2022-12-20T03:01:09;96455.84;;;2.22;53.02
27425;BME280;15244;49.088;11.886;2022-12-20T03:06:12;96445.06;;;2.22;53.19
27425;BME280;15244;49.088;11.886;2022-12-20T03:11:14;96421.97;;;2.21;53.40
27425;BME280;15244;49.088;11.886;2022-12-20T03:16:16;96418.31;;;2.16;52.99
27425;BME280;15244;49.088;11.886;2022-12-20T03:21:18;96414.34;;;2.14;52.96
27425;BME280;15244;49.088;11.886;2022-12-20T03:26:20;96431.41;;;2.09;52.87
27425;BME280;15244;49.088;11.886;2022-12-20T03:31:28;96427.63;;;2.10;53.27
27425;BME280;15244;49.088;11.886;2022-12-20T03:36:31;96429.50;;;2.10;53.09
27425;BME280;15244;49.088;11.886;2022-12-20T03:41:36;96427.63;;;2.10;53.16
27425;BME280;15244;49.088;11.886;2022-12-20T03:46:38;96431.13;;;2.11;53.17
27425;BME280;15244;49.088;11.886;2022-12-20T03:51:41;96430.34;;;2.10;53.52
27425;BME280;15244;49.088;11.886;2022-12-20T03:56:43;96431.59;;;2.13;53.18
27425;BME280;15244;49.088;11.886;2022-12-20T04:01:44;96423.19;;;2.14;53.53
27425;BME280;15244;49.088;11.886;2022-12-20T04:06:46;96429.06;;;2.16;53.46
27425;BME280;15244;49.088;11.886;2022-12-20T04:11:49;96426.09;;;2.18;53.41
27425;BME280;15244;49.088;11.886;2022-12-20T04:16:51;96416.91;;;2.19;53.44
27425;BME280;15244;49.088;11.886;2022-12-20T04:21:55;96404.56;;;2.18;53.41
27425;BME280;15244;49.088;11.886;2022-12-20T04:27:18;96390.94;;;2.14;53.48
27425;BME280;15244;49.088;11.886;2022-12-20T04:32:20;96389.84;;;2.15;53.28
27425;BME280;15244;49.088;11.886;2022-12-20T04:37:22;96377.16;;;2.16;53.73
27425;BME280;15244;49.088;11.886;2022-12-20T04:42:27;96396.78;;;2.16;53.49
27425;BME280;15244;49.088;11.886;2022-12-20T04:47:30;96415.31;;;2.18;53.46
27425;BME280;15244;49.088;11.886;2022-12-20T04:52:32;96408.53;;;2.21;53.85
27425;BME280;15244;49.088;11.886;2022-12-20T04:57:52;96394.59;;;2.19;53.42
27425;BME280;15244;49.088;11.886;2022-12-20T05:02:54;96399.34;;;2.22;53.67
27425;BME280;15244;49.088;11.886;2022-12-20T05:07:58;96382.56;;;2.25;53.58
27425;BME280;15244;49.088;11.886;2022-12-20T05:13:02;96359.94;;;2.26;53.93
27425;BME280;15244;49.088;11.886;2022-12-20T05:18:13;96381.94;;;2.28;53.67
27425;BME280;15244;49.088;11.886;2022-12-20T05:23:23;96374.66;;;2.28;53.45
27425;BME280;15244;49.088;11.886;2022-12-20T05:28:48;96402.38;;;2.29;53.95
27425;BME280;15244;49.088;11.886;2022-12-20T05:33:50;96393.97;;;2.30;53.79
27425;BME280;15244;49.088;11.886;2022-12-20T05:38:52;96381.78;;;2.33;53.65
27425;BME280;15244;49.088;11.886;2022-12-20T05:44:03;96354.56;;;2.34;53.80
27425;BME280;15244;49.088;11.886;2022-12-20T05:49:08;96365.31;;;2.34;54.16
27425;BME280;15244;49.088;11.886;2022-12-20T05:54:10;96372.28;;;2.35;53.59
27425;BME280;15244;49.088;11.886;2022-12-20T05:59:18;96384.66;;;2.36;53.76
27425;BME280;15244;49.088;11.886;2022-12-20T06:04:20;96363.13;;;2.36;53.77
27425;BME280;15244;49.088;11.886;2022-12-20T06:09:22;96368.50;;;2.36;53.81
27425;BME280;15244;49.088;11.886;2022-12-20T06:14:34;96371.69;;;2.38;53.78
27425;BME280;15244;49.088;11.886;2022-12-20T06:19:35;96375.94;;;2.39;54.03
27425;BME280;15244;49.088;11.886;2022-12-20T06:24:37;96372.94;;;2.41;53.69
27425;BME280;15244;49.088;11.886;2022-12-20T06:29:48;96381.50;;;2.43;53.50
27425;BME280;15244;49.088;11.886;2022-12-20T06:34:55;96365.34;;;2.43;53.97
27425;BME280;15244;49.088;11.886;2022-12-20T06:39:57;96354.59;;;2.43;53.59
27425;BME280;15244;49.088;11.886;2022-12-20T06:44:59;96361.06;;;2.42;53.79
27425;BME280;15244;49.088;11.886;2022-12-20T06:50:03;96357.28;;;2.43;53.53
27425;BME280;15244;49.088;11.886;2022-12-20T06:55:06;96350.31;;;2.42;53.64
27425;BME280;15244;49.088;11.886;2022-12-20T07:00:12;96335.41;;;2.45;53.95
27425;BME280;15244;49.088;11.886;2022-12-20T07:05:14;96339.72;;;2.46;53.35
27425;BME280;15244;49.088;11.886;2022-12-20T07:10:16;96333.50;;;2.45;53.64
27425;BME280;15244;49.088;11.886;2022-12-20T07:15:18;96337.31;;;2.44;53.93
27425;BME280;15244;49.088;11.886;2022-12-20T07:20:19;96331.94;;;2.44;53.76
27425;BME280;15244;49.088;11.886;2022-12-20T07:25:21;96346.53;;;2.43;53.61
27425;BME280;15244;49.088;11.886;2022-12-20T07:30:22;96346.97;;;2.45;53.80
27425;BME280;15244;49.088;11.886;2022-12-20T07:35:26;96370.09;;;2.46;53.83
27425;BME280;15244;49.088;11.886;2022-12-20T07:40:28;96370.25;;;2.50;54.19
27425;BME280;15244;49.088;11.886;2022-12-20T07:45:30;96376.44;;;2.50;53.97
27425;BME280;15244;49.088;11.886;2022-12-20T07:50:33;96370.88;;;2.55;53.72
27425;BME280;15244;49.088;11.886;2022-12-20T07:55:37;96369.47;;;2.58;53.69
27425;BME280;15244;49.088;11.886;2022-12-20T08:00:41;96359.97;;;2.60;53.62
27425;BME280;15244;49.088;11.886;2022-12-20T08:05:46;96359.34;;;2.64;53.78
27425;BME280;15244;49.088;11.886;2022-12-20T08:10:49;96366.31;;;2.65;53.75
27425;BME280;15244;49.088;11.886;2022-12-20T08:15:51;96359.97;;;2.69;54.11
27425;BME280;15244;49.088;11.886;2022-12-20T08:20:52;96352.53;;;2.75;53.81
27425;BME280;15244;49.088;11.886;2022-12-20T08:25:54;96339.53;;;2.77;54.03
27425;BME280;15244;49.088;11.886;2022-12-20T08:31:04;96333.03;;;2.78;53.96
27425;BME280;15244;49.088;11.886;2022-12-20T08:36:08;96342.72;;;2.79;53.96
27425;BME280;15244;49.088;11.886;2022-12-20T08:41:13;96335.91;;;2.81;53.89
27425;BME280;15244;49.088;11.886;2022-12-20T08:46:15;96311.50;;;2.87;53.88
27425;BME280;15244;49.088;11.886;2022-12-20T08:51:16;96320.06;;;2.89;53.85
27425;BME280;15244;49.088;11.886;2022-12-20T08:56:18;96307.53;;;2.93;53.72
27425;BME280;15244;49.088;11.886;2022-12-20T09:01:20;96317.66;;;2.96;53.37
27425;BME280;15244;49.088;11.886;2022-12-20T09:06:23;96298.50;;;2.97;53.36
27425;BME280;15244;49.088;11.886;2022-12-20T09:11:25;96312.91;;;3.01;53.51
27425;BME280;15244;49.088;11.886;2022-12-20T09:16:30;96301.50;;;3.04;53.58
27425;BME280;15244;49.088;11.886;2022-12-20T09:21:32;96300.72;;;3.04;53.58
27425;BME280;15244;49.088;11.886;2022-12-20T09:26:34;96311.13;;;3.06;53.47
27425;BME280;15244;49.088;11.886;2022-12-20T09:31:36;96307.00;;;3.08;53.59
27425;BME280;15244;49.088;11.886;2022-12-20T09:36:38;96298.75;;;3.13;53.56
27425;BME280;15244;49.088;11.886;2022-12-20T09:41:41;96297.81;;;3.18;53.88
27425;BME280;15244;49.088;11.886;2022-12-20T09:46:46;96289.53;;;3.23;53.58
27425;BME280;15244;49.088;11.886;2022-12-20T10:02:52;96298.69;;;3.39;53.50
27425;BME280;15244;49.088;11.886;2022-12-20T10:08:24;96281.53;;;3.44;53.33
27425;BME280;15244;49.088;11.886;2022-12-20T10:13:50;96278.66;;;3.49;53.46
27425;BME280;15244;49.088;11.886;2022-12-20T10:29:20;96258.31;;;3.60;53.77
27425;BME280;15244;49.088;11.886;2022-12-20T10:34:22;96263.19;;;3.67;53.42
27425;BME280;15244;49.088;11.886;2022-12-20T10:39:39;96248.88;;;3.75;53.69
27425;BME280;15244;49.088;11.886;2022-12-20T10:44:42;96251.06;;;3.82;53.56
27425;BME280;15244;49.088;11.886;2022-12-20T10:49:44;96237.06;;;3.88;53.48
27425;BME280;15244;49.088;11.886;2022-12-20T10:54:46;96224.94;;;3.95;53.66
27425;BME280;15244;49.088;11.886;2022-12-20T10:59:51;96210.63;;;4.03;53.59
27425;BME280;15244;49.088;11.886;2022-12-20T11:05:17;96196.59;;;4.09;53.14
27425;BME280;15244;49.088;11.886;2022-12-20T11:10:22;96187.19;;;4.16;53.04
27425;BME280;15244;49.088;11.886;2022-12-20T11:15:30;96176.63;;;4.23;52.68
27425;BME280;15244;49.088;11.886;2022-12-20T11:20:45;96167.22;;;4.29;52.97
27425;BME280;15244;49.088;11.886;2022-12-20T11:26:17;96173.09;;;4.31;53.05
27425;BME280;15244;49.088;11.886;2022-12-20T11:31:43;96158.47;;;4.32;52.72
27425;BME280;15244;49.088;11.886;2022-12-20T11:42:34;96131.13;;;4.33;52.64
27425;BME280;15244;49.088;11.886;2022-12-20T11:53:15;96119.00;;;4.40;52.50
27425;BME280;15244;49.088;11.886;2022-12-20T12:04:14;96112.16;;;4.42;52.46
27425;BME280;15244;49.088;11.886;2022-12-20T12:09:30;96107.53;;;4.43;52.49
27425;BME280;15244;49.088;11.886;2022-12-20T12:19:55;96107.88;;;4.41;52.27
27425;BME280;15244;49.088;11.886;2022-12-20T12:25:03;96102.94;;;4.43;52.55
27425;BME280;15244;49.088;11.886;2022-12-20T12:30:15;96093.03;;;4.47;52.69
27425;BME280;15244;49.088;11.886;2022-12-20T12:41:08;96089.66;;;4.50;52.30
27425;BME280;15244;49.088;11.886;2022-12-20T12:46:27;96082.47;;;4.54;52.46
27425;BME280;15244;49.088;11.886;2022-12-20T12:51:35;96089.56;;;4.59;52.66
27425;BME280;15244;49.088;11.886;2022-12-20T12:56:40;96074.47;;;4.58;52.20
27425;BME280;15244;49.088;11.886;2022-12-20T13:06:58;96068.75;;;4.60;52.18
27425;BME280;15244;49.088;11.886;2022-12-20T13:17:56;96100.47;;;4.63;52.39
27425;BME280;15244;49.088;11.886;2022-12-20T13:43:46;96068.19;;;4.54;51.87
27425;BME280;15244;49.088;11.886;2022-12-20T13:48:51;96058.50;;;4.53;51.97
27425;BME280;15244;49.088;11.886;2022-12-20T13:58:57;96009.78;;;4.49;52.14
27425;BME280;15244;49.088;11.886;2022-12-20T14:04:04;96027.44;;;4.47;51.84
27425;BME280;15244;49.088;11.886;2022-12-20T14:09:26;96028.59;;;4.46;52.32
27425;BME280;15244;49.088;11.886;2022-12-20T14:14:29;96020.91;;;4.48;51.82
27425;BME280;15244;49.088;11.886;2022-12-20T14:19:30;96026.31;;;4.48;51.98
27425;BME280;15244;49.088;11.886;2022-12-20T14:24:32;96045.22;;;4.48;52.28
27425;BME280;15244;49.088;11.886;2022-12-20T14:29:34;96066.81;;;4.48;52.20
27425;BME280;15244;49.088;11.886;2022-12-20T14:34:36;96055.91;;;4.44;52.20
27425;BME280;15244;49.088;11.886;2022-12-20T14:50:19;96023.63;;;4.36;51.99
27425;BME280;15244;49.088;11.886;2022-12-20T14:55:27;96018.22;;;4.36;52.52
27425;BME280;15244;49.088;11.886;2022-12-20T15:00:32;95969.19;;;4.33;nan
27425;BME280;15244;49.088;11.886;2022-12-20T15:10:36;96003.03;;;4.31;52.32
27425;BME280;15244;49.088;11.886;2022-12-20T15:15:38;95998.75;;;4.30;52.50
27425;BME280;15244;49.088;11.886;2022-12-20T15:20:41;95985.25;;;4.30;52.63
27425;BME280;15244;49.088;11.886;2022-12-20T15:25:43;96002.91;;;4.27;52.14
27425;BME280;15244;49.088;11.886;2022-12-20T15:30:48;96000.88;;;4.24;52.81
27425;BME280;15244;49.088;11.886;2022-12-20T15:35:51;95985.81;;;4.23;52.65
27425;BME280;15244;49.088;11.886;2022-12-20T15:40:55;95988.06;;;4.21;52.61
27425;BME280;15244;49.088;11.886;2022-12-20T15:46:00;95985.69;;;4.20;53.07
27425;BME280;15244;49.088;11.886;2022-12-20T15:51:13;95980.63;;;4.18;52.62
27425;BME280;15244;49.088;11.886;2022-12-20T15:56:19;95978.94;;;4.13;52.54
27425;BME280;15244;49.088;11.886;2022-12-20T16:01:28;95976.25;;;4.13;52.67
27425;BME280;15244;49.088;11.886;2022-12-20T16:06:42;95976.25;;;4.13;52.62
27425;BME280;15244;49.088;11.886;2022-12-20T16:11:43;95976.25;;;4.13;52.91
27425;BME280;15244;49.088;11.886;2022-12-20T16:16:45;95986.69;;;4.15;52.68
27425;BME280;15244;49.088;11.886;2022-12-20T16:21:50;96000.63;;;4.17;52.84
27425;BME280;15244;49.088;11.886;2022-12-20T16:26:52;95994.91;;;4.19;52.77
27425;BME280;15244;49.088;11.886;2022-12-20T16:31:53;96003.78;;;4.19;52.64
27425;BME280;15244;49.088;11.886;2022-12-20T16:36:55;95990.31;;;4.19;52.66
27425;BME280;15244;49.088;11.886;2022-12-20T16:41:57;95996.47;;;4.20;52.88
27425;BME280;15244;49.088;11.886;2022-12-20T16:46:58;95984.91;;;4.19;52.99
27425;BME280;15244;49.088;11.886;2022-12-20T16:52:00;95981.75;;;4.17;52.60
27425;BME280;15244;49.088;11.886;2022-12-20T16:57:01;95979.50;;;4.19;53.01
27425;BME280;15244;49.088;11.886;2022-12-20T17:02:18;95987.59;;;4.19;53.11
27425;BME280;15244;49.088;11.886;2022-12-20T17:07:22;95983.00;;;4.20;52.96
27425;BME280;15244;49.088;11.886;2022-12-20T17:12:24;95973.31;;;4.19;53.13
27425;BME280;15244;49.088;11.886;2022-12-20T17:17:26;95970.94;;;4.17;53.04
27425;BME280;15244;49.088;11.886;2022-12-20T17:22:27;95970.63;;;4.19;53.44
27425;BME280;15244;49.088;11.886;2022-12-20T17:27:29;95959.69;;;4.15;53.09
27425;BME280;15244;49.088;11.886;2022-12-20T17:32:30;95951.59;;;4.15;53.15
27425;BME280;15244;49.088;11.886;2022-12-20T17:37:32;95947.81;;;4.16;52.86
27425;BME280;15244;49.088;11.886;2022-12-20T17:42:34;95945.44;;;4.15;53.11
27425;BME280;15244;49.088;11.886;2022-12-20T17:47:35;95937.34;;;4.15;53.11
27425;BME280;15244;49.088;11.886;2022-12-20T17:52:37;95926.91;;;4.13;53.12
27425;BME280;15244;49.088;11.886;2022-12-20T17:57:39;95915.66;;;4.11;53.41
27425;BME280;15244;49.088;11.886;2022-12-20T18:02:41;95923.28;;;4.09;53.06
27425;BME280;15244;49.088;11.886;2022-12-20T18:07:42;95938.34;;;4.10;53.17
27425;BME280;15244;49.088;11.886;2022-12-20T18:12:49;95940.72;;;4.11;53.06
27425;BME280;15244;49.088;11.886;2022-12-20T18:17:51;95965.31;;;4.10;52.87
27425;BME280;15244;49.088;11.886;2022-12-20T18:22:52;95943.41;;;4.11;52.85
27425;BME280;15244;49.088;11.886;2022-12-20T18:27:54;95954.19;;;4.11;52.89
27425;BME280;15244;49.088;11.886;2022-12-20T18:32:55;95944.19;;;4.12;52.63
27425;BME280;15244;49.088;11.886;2022-12-20T18:37:57;95945.31;;;4.11;52.96
27425;BME280;15244;49.088;11.886;2022-12-20T18:42:59;95969.16;;;4.09;52.97
27425;BME280;15244;49.088;11.886;2022-12-20T18:48:06;95963.28;;;4.07;52.68
27425;BME280;15244;49.088;11.886;2022-12-20T18:53:08;95952.03;;;4.05;52.99
27425;BME280;15244;49.088;11.886;2022-12-20T18:58:10;95933.06;;;4.01;52.72
27425;BME280;15244;49.088;11.886;2022-12-20T19:03:14;95936.09;;;4.00;53.06
27425;BME280;15244;49.088;11.886;2022-12-20T19:08:16;95952.25;;;4.00;52.48
27425;BME280;15244;49.088;11.886;2022-12-20T19:13:19;95925.63;;;3.98;53.00
27425;BME280;15244;49.088;11.886;2022-12-20T19:18:21;95940.22;;;3.97;53.04
27425;BME280;15244;49.088;11.886;2022-12-20T19:23:23;95947.22;;;3.98;52.86
27425;BME280;15244;49.088;11.886;2022-12-20T19:28:24;95942.28;;;4.00;53.23
27425;BME280;15244;49.088;11.886;2022-12-20T19:33:26;95926.09;;;4.00;52.78
27425;BME280;15244;49.088;11.886;2022-12-20T19:38:27;95929.91;;;3.99;52.84
27425;BME280;15244;49.088;11.886;2022-12-20T19:43:30;95905.63;;;3.99;52.97
27425;BME280;15244;49.088;11.886;2022-12-20T19:48:31;95885.28;;;4.02;53.07
27425;BME280;15244;49.088;11.886;2022-12-20T19:53:34;95867.19;;;4.02;52.97
27425;BME280;15244;49.088;11.886;2022-12-20T19:58:36;95878.41;;;4.04;53.00
27425;BME280;15244;49.088;11.886;2022-12-20T20:03:38;95878.41;;;4.04;53.36
27425;BME280;15244;49.088;11.886;2022-12-20T20:08:40;95879.56;;;4.03;52.81
27425;BME280;15244;49.088;11.886;2022-12-20T20:13:42;95860.31;;;4.05;53.18
27425;BME280;15244;49.088;11.886;2022-12-20T20:18:44;95829.53;;;4.06;52.88
27425;BME280;15244;49.088;11.886;2022-12-20T20:23:48;95829.53;;;4.06;52.97
27425;BME280;15244;49.088;11.886;2022-12-20T20:28:50;95837.63;;;4.06;52.92
27425;BME280;15244;49.088;11.886;2022-12-20T20:33:52;95868.19;;;4.10;53.04
27425;BME280;15244;49.088;11.886;2022-12-20T20:38:54;95842.34;;;4.09;52.69
27425;BME280;15244;49.088;11.886;2022-12-20T20:43:56;95840.88;;;4.11;53.28
27425;BME280;15244;49.088;11.886;2022-12-20T20:48:58;95837.84;;;4.13;53.05
27425;BME280;15244;49.088;11.886;2022-12-20T20:54:00;95818.97;;;4.13;52.77
27425;BME280;15244;49.088;11.886;2022-12-20T20:59:01;95824.34;;;4.13;53.02
27425;BME280;15244;49.088;11.886;2022-12-20T21:04:09;95819.28;;;4.11;53.08
27425;BME280;15244;49.088;11.886;2022-12-20T21:09:11;95836.63;;;4.10;53.00
27425;BME280;15244;49.088;11.886;2022-12-20T21:14:12;95845.50;;;4.11;53.22
27425;BME280;15244;49.088;11.886;2022-12-20T21:19:14;95838.84;;;4.08;53.01
27425;BME280;15244;49.088;11.886;2022-12-20T21:24:17;95825.38;;;4.08;53.22
27425;BME280;15244;49.088;11.886;2022-12-20T21:29:18;95841.09;;;4.06;53.43
27425;BME280;15244;49.088;11.886;2022-12-20T21:34:20;95827.94;;;4.05;53.20
27425;BME280;15244;49.088;11.886;2022-12-20T21:39:22;95820.66;;;4.05;53.29
27425;BME280;15244;49.088;11.886;2022-12-20T21:44:23;95817.50;;;4.03;52.86
27425;BME280;15244;49.088;11.886;2022-12-20T21:49:25;95810.53;;;4.02;53.22
27425;BME280;15244;49.088;11.886;2022-12-20T21:54:27;95811.34;;;4.03;53.26
27425;BME280;15244;49.088;11.886;2022-12-20T21:59:29;95816.38;;;4.04;53.03
27425;BME280;15244;49.088;11.886;2022-12-20T22:04:31;95808.72;;;4.06;53.61
27425;BME280;15244;49.088;11.886;2022-12-20T22:09:33;95825.69;;;4.07;52.83
27425;BME280;15244;49.088;11.886;2022-12-20T22:14:34;95831.88;;;4.07;53.18
27425;BME280;15244;49.088;11.886;2022-12-20T22:19:36;95837.41;;;4.11;53.29
27425;BME280;15244;49.088;11.886;2022-12-20T22:24:38;95843.56;;;4.11;52.77
27425;BME280;15244;49.088;11.886;2022-12-20T22:29:40;95828.16;;;4.12;53.10
27425;BME280;15244;49.088;11.886;2022-12-20T22:34:41;95842.78;;;4.11;53.19
27425;BME280;15244;49.088;11.886;2022-12-20T22:39:43;95844.72;;;4.10;53.29
27425;BME280;15244;49.088;11.886;2022-12-20T22:44:44;95831.22;;;4.10;52.74
27425;BME280;15244;49.088;11.886;2022-12-20T22:49:46;95848.88;;;4.08;53.18
27425;BME280;15244;49.088;11.886;2022-12-20T22:54:47;95860.09;;;4.10;52.72
27425;BME280;15244;49.088;11.886;2022-12-20T22:59:49;95846.59;;;4.10;53.30
27425;BME280;15244;49.088;11.886;2022-12-20T23:04:50;95826.59;;;4.11;53.00
27425;BME280;15244;49.088;11.886;2022-12-20T23:09:52;95825.81;;;4.10;53.08
27425;BME280;15244;49.088;11.886;2022-12-20T23:14:54;95813.44;;;4.09;52.97
27425;BME280;15244;49.088;11.886;2022-12-20T23:20:14;95823.91;;;4.11;52.98
27425;BME280;15244;49.088;11.886;2022-12-20T23:25:34;95821.88;;;4.08;52.96
27425;BME280;15244;49.088;11.886;2022-12-20T23:30:36;95819.53;;;4.06;53.10
27425;BME280;15244;49.088;11.886;2022-12-20T23:35:37;95830.75;;;4.08;53.34
27425;BME280;15244;49.088;11.886;2022-12-20T23:40:40;95835.03;;;4.09;53.08
27425;BME280;15244;49.088;11.886;2022-12-20T23:45:41;95825.47;;;4.12;53.10
27425;BME280;15244;49.088;11.886;2022-12-20T23:50:43;95818.59;;;4.15;53.14
27425;BME280;15244;49.088;11.886;2022-12-20T23:56:02;95804.78;;;4.16;53.23
